Time;durP1;ratioP1;P1;durP2;ratioP2;P2;SDS_P1;SDS_P2;PMS_P1;PMS_P2;Temp;Humidity;BMP_temperature;BMP_pressure;BME280_temperature;BME280_humidity;BME280_pressure;Samples;Min_cycle;Max_cycle;Signal;HPM_P1;HPM_P2
2022/07/08 00:00:17;;;;;;;0.85;0.85;;;24.20;43.60;;;;;;5087232;27;46426;-70
2022/07/08 00:02:44;;;;;;;1.08;0.98;;;24.20;43.50;;;;;;5051784;28;45276;-70
2022/07/08 00:05:11;;;;;;;2.08;1.00;;;24.20;43.60;;;;;;5047553;28;45316;-70
2022/07/08 00:07:39;;;;;;;1.02;1.02;;;24.20;43.50;;;;;;5047237;28;45252;-70
2022/07/08 00:10:07;;;;;;;1.10;1.00;;;24.20;43.50;;;;;;5046953;28;46663;-70
2022/07/08 00:12:34;;;;;;;1.00;0.90;;;24.20;43.50;;;;;;5047002;28;45311;-70
2022/07/08 00:15:01;;;;;;;1.00;1.00;;;24.20;43.50;;;;;;5047325;28;45311;-70
2022/07/08 00:17:28;;;;;;;0.80;0.80;;;24.20;43.50;;;;;;5047558;28;45222;-70
2022/07/08 00:19:54;;;;;;;0.93;0.88;;;24.20;43.50;;;;;;5046851;28;46534;-70
2022/07/08 00:22:21;;;;;;;0.80;0.80;;;24.20;43.60;;;;;;5046895;28;45282;-71
2022/07/08 00:24:49;;;;;;;0.85;0.85;;;24.20;43.60;;;;;;5046964;28;45303;-70
2022/07/08 00:27:16;;;;;;;0.80;0.80;;;24.20;43.60;;;;;;5046874;28;45176;-70
2022/07/08 00:29:43;;;;;;;0.80;0.80;;;24.20;43.50;;;;;;5073479;28;45207;-70
2022/07/08 00:32:10;;;;;;;0.88;0.88;;;24.10;43.50;;;;;;5087349;28;45189;-70
2022/07/08 00:34:37;;;;;;;0.90;0.90;;;24.10;43.50;;;;;;5087337;28;45523;-71
2022/07/08 00:37:04;;;;;;;1.10;0.80;;;24.10;43.60;;;;;;5087323;28;45284;-70
2022/07/08 00:39:31;;;;;;;0.80;0.80;;;24.10;43.60;;;;;;5087350;28;47313;-70
2022/07/08 00:41:59;;;;;;;0.80;0.80;;;24.10;43.60;;;;;;5084504;28;45245;-70
2022/07/08 00:44:26;;;;;;;0.90;0.90;;;24.10;43.60;;;;;;5087375;28;45201;-70
2022/07/08 00:46:52;;;;;;;1.27;0.88;;;24.10;43.70;;;;;;5087090;28;45387;-71
2022/07/08 00:49:19;;;;;;;0.90;0.90;;;24.00;43.70;;;;;;5086890;28;46447;-71
2022/07/08 00:51:46;;;;;;;0.80;0.80;;;24.00;43.70;;;;;;5087154;28;45290;-70
2022/07/08 00:54:14;;;;;;;1.02;0.90;;;24.00;43.70;;;;;;5087251;28;45248;-70
2022/07/08 00:56:40;;;;;;;1.15;0.90;;;24.00;43.70;;;;;;5087256;28;45450;-70
2022/07/08 00:59:09;;;;;;;0.70;0.70;;;24.00;43.70;;;;;;5086900;28;45276;-70
2022/07/08 01:01:36;;;;;;;1.00;0.90;;;23.90;43.70;;;;;;5069999;28;45240;-70
2022/07/08 01:04:02;;;;;;;0.70;0.70;;;23.90;43.70;;;;;;5046582;28;45180;-70
2022/07/08 01:06:29;;;;;;;0.82;0.82;;;23.90;43.70;;;;;;5046869;28;45209;-70
2022/07/08 01:08:56;;;;;;;0.93;0.88;;;23.90;43.80;;;;;;5045835;28;46484;-70
2022/07/08 01:11:23;;;;;;;0.75;0.75;;;23.90;43.80;;;;;;5044885;28;45268;-70
2022/07/08 01:13:50;;;;;;;0.90;0.90;;;23.90;43.80;;;;;;5045971;28;45286;-71
2022/07/08 01:16:18;;;;;;;0.70;0.70;;;23.90;43.80;;;;;;5046678;28;45356;-70
2022/07/08 01:18:45;;;;;;;0.70;0.70;;;23.90;43.80;;;;;;5045836;28;45628;-70
2022/07/08 01:21:13;;;;;;;1.00;0.90;;;23.80;43.80;;;;;;5046200;28;45270;-70
2022/07/08 01:23:40;;;;;;;1.02;0.93;;;23.80;43.90;;;;;;5046246;28;45328;-70
2022/07/08 01:26:10;;;;;;;0.70;0.70;;;23.80;43.90;;;;;;5046332;28;45295;-70
2022/07/08 01:28:37;;;;;;;0.73;0.73;;;23.80;43.90;;;;;;5054036;28;45458;-70
2022/07/08 01:31:03;;;;;;;0.80;0.80;;;23.80;43.90;;;;;;5086139;28;45246;-70
2022/07/08 01:33:30;;;;;;;0.80;0.80;;;23.80;43.90;;;;;;5086406;28;45378;-70
2022/07/08 01:35:57;;;;;;;0.65;0.65;;;23.70;43.90;;;;;;5086550;28;45505;-70
2022/07/08 01:38:25;;;;;;;0.70;0.70;;;23.70;43.90;;;;;;5086202;28;46344;-71
2022/07/08 01:40:52;;;;;;;0.70;0.70;;;23.70;43.90;;;;;;5086357;28;45430;-70
2022/07/08 01:43:20;;;;;;;0.85;0.85;;;23.70;43.90;;;;;;5086274;28;45294;-71
2022/07/08 01:45:47;;;;;;;0.90;0.80;;;23.70;44.00;;;;;;5086584;28;45222;-70
2022/07/08 01:48:14;;;;;;;1.00;0.90;;;23.70;44.00;;;;;;5086232;28;46415;-70
2022/07/08 01:50:41;;;;;;;0.68;0.63;;;23.70;44.00;;;;;;5086165;28;45163;-70
2022/07/08 01:53:07;;;;;;;0.98;0.73;;;23.70;44.60;;;;;;5086234;28;45319;-70
2022/07/08 01:55:36;;;;;;;0.70;0.70;;;23.70;44.10;;;;;;5086372;28;45400;-70
2022/07/08 01:58:02;;;;;;;0.70;0.70;;;23.70;44.10;;;;;;5085624;28;45271;-70
2022/07/08 02:00:29;;;;;;;0.80;0.80;;;23.70;44.00;;;;;;5085685;28;45188;-70
2022/07/08 02:02:56;;;;;;;0.82;0.70;;;23.70;44.10;;;;;;5047009;28;45341;-70
2022/07/08 02:05:23;;;;;;;2.33;0.75;;;23.70;44.10;;;;;;5046119;28;45416;-70
2022/07/08 02:07:50;;;;;;;0.73;0.73;;;23.70;44.20;;;;;;5045062;28;46662;-71
2022/07/08 02:10:17;;;;;;;0.73;0.70;;;23.70;44.10;;;;;;5045416;28;45241;-70
2022/07/08 02:12:44;;;;;;;0.85;0.85;;;23.60;44.10;;;;;;5045590;28;45272;-70
2022/07/08 02:15:11;;;;;;;0.85;0.80;;;23.70;44.10;;;;;;5045857;28;45332;-70
2022/07/08 02:17:38;;;;;;;0.70;0.70;;;23.60;44.10;;;;;;5045438;28;46909;-70
2022/07/08 02:20:07;;;;;;;0.80;0.80;;;23.60;44.10;;;;;;5045624;28;45324;-71
2022/07/08 02:22:34;;;;;;;0.80;0.80;;;23.60;44.10;;;;;;5046766;28;45194;-70
2022/07/08 02:25:01;;;;;;;0.70;0.70;;;23.60;44.10;;;;;;5049334;28;45241;-70
2022/07/08 02:27:27;;;;;;;0.80;0.80;;;23.60;44.20;;;;;;5048619;28;45460;-70
2022/07/08 02:29:56;;;;;;;1.20;0.77;;;23.60;44.10;;;;;;5078633;28;45355;-70
2022/07/08 02:32:22;;;;;;;0.73;0.73;;;23.50;44.20;;;;;;5089375;28;45177;-70
2022/07/08 02:34:49;;;;;;;0.85;0.80;;;23.50;44.20;;;;;;5090023;28;45421;-71
2022/07/08 02:37:16;;;;;;;0.77;0.77;;;23.50;44.30;;;;;;5089843;28;45248;-70
2022/07/08 02:39:43;;;;;;;0.60;0.60;;;23.50;44.30;;;;;;5089714;28;45326;-70
2022/07/08 02:42:10;;;;;;;0.70;0.70;;;23.50;44.30;;;;;;5089672;28;45372;-70
2022/07/08 02:44:37;;;;;;;1.23;0.80;;;23.50;44.30;;;;;;5089580;28;45392;-70
2022/07/08 02:47:06;;;;;;;0.60;0.60;;;23.50;44.30;;;;;;5089426;28;47948;-70
2022/07/08 02:49:32;;;;;;;0.82;0.80;;;23.50;44.30;;;;;;5089439;28;45296;-70
2022/07/08 02:51:59;;;;;;;0.80;0.80;;;23.50;45.00;;;;;;5089640;28;45332;-70
2022/07/08 02:54:26;;;;;;;0.80;0.80;;;23.40;44.30;;;;;;5089504;28;45296;-70
2022/07/08 02:56:53;;;;;;;0.70;0.70;;;23.40;44.30;;;;;;5089273;28;46282;-70
2022/07/08 02:59:20;;;;;;;0.60;0.60;;;23.40;44.40;;;;;;5089403;28;45270;-70
2022/07/08 03:01:46;;;;;;;1.10;0.80;;;23.40;44.40;;;;;;5069790;28;45277;-70
2022/07/08 03:04:15;;;;;;;0.68;0.68;;;23.40;44.50;;;;;;5048524;28;45241;-74
2022/07/08 03:06:42;;;;;;;0.70;0.70;;;23.40;44.60;;;;;;5048503;28;46420;-74
2022/07/08 03:09:08;;;;;;;0.70;0.70;;;23.40;44.50;;;;;;5048414;28;45214;-74
2022/07/08 03:11:35;;;;;;;0.60;0.60;;;23.40;44.60;;;;;;5048644;28;45308;-74
2022/07/08 03:14:02;;;;;;;0.68;0.68;;;23.30;44.60;;;;;;5048791;28;45235;-74
2022/07/08 03:16:29;;;;;;;0.75;0.75;;;23.30;44.60;;;;;;5048370;28;45480;-74
2022/07/08 03:18:56;;;;;;;0.70;0.70;;;23.30;44.60;;;;;;5048423;28;45319;-74
2022/07/08 03:21:24;;;;;;;1.13;0.70;;;23.30;44.60;;;;;;5048716;28;45220;-74
2022/07/08 03:23:51;;;;;;;0.88;0.75;;;23.30;44.60;;;;;;5048796;28;45250;-74
2022/07/08 03:26:17;;;;;;;0.70;0.70;;;23.30;45.20;;;;;;5048347;28;47300;-74
2022/07/08 03:28:44;;;;;;;0.93;0.75;;;23.30;44.60;;;;;;5059074;28;45316;-74
2022/07/08 03:31:11;;;;;;;0.60;0.60;;;23.30;44.60;;;;;;5089126;28;45343;-74
2022/07/08 03:33:38;;;;;;;0.98;0.65;;;23.30;44.70;;;;;;5088330;27;45384;-74
2022/07/08 03:36:07;;;;;;;0.70;0.70;;;23.20;44.70;;;;;;5088796;28;45228;-74
2022/07/08 03:38:35;;;;;;;0.90;0.90;;;23.20;44.70;;;;;;5088414;28;45296;-74
2022/07/08 03:43:46;;;;;;;0.85;0.82;;;23.20;44.70;;;;;;5086322;28;45327;-74
2022/07/08 03:46:13;;;;;;;0.60;0.60;;;23.20;44.70;;;;;;5088816;28;47352;-74
2022/07/08 03:48:40;;;;;;;0.80;0.80;;;23.20;44.70;;;;;;5088512;28;45206;-74
2022/07/08 03:51:06;;;;;;;0.70;0.70;;;23.20;44.80;;;;;;5088578;28;45258;-74
2022/07/08 03:53:35;;;;;;;0.75;0.75;;;23.20;44.70;;;;;;5088205;28;45360;-73
2022/07/08 03:56:01;;;;;;;0.80;0.80;;;23.20;44.80;;;;;;5087886;28;45362;-71
2022/07/08 03:58:28;;;;;;;0.52;0.50;;;23.20;44.80;;;;;;5088500;28;45223;-71
2022/07/08 04:00:55;;;;;;;0.80;0.80;;;23.20;44.80;;;;;;5082902;28;45249;-71
2022/07/08 04:03:22;;;;;;;0.57;0.57;;;23.20;44.80;;;;;;5047964;28;45451;-71
2022/07/08 04:05:48;;;;;;;0.77;0.73;;;23.20;44.80;;;;;;5047734;28;45714;-71
2022/07/08 04:08:15;;;;;;;0.80;0.80;;;23.10;44.70;;;;;;5047641;28;45231;-71
2022/07/08 04:10:43;;;;;;;1.67;0.70;;;23.10;44.80;;;;;;5047768;28;45284;-71
2022/07/08 04:13:10;;;;;;;0.60;0.60;;;23.10;44.80;;;;;;5048017;28;45391;-71
2022/07/08 04:15:37;;;;;;;0.70;0.70;;;23.10;44.80;;;;;;5047674;28;45218;-70
2022/07/08 04:18:04;;;;;;;0.65;0.65;;;23.10;44.80;;;;;;5047368;28;45291;-71
2022/07/08 04:20:31;;;;;;;0.70;0.70;;;23.10;44.80;;;;;;5047686;28;45340;-71
2022/07/08 04:22:57;;;;;;;0.70;0.70;;;23.10;45.40;;;;;;5048137;28;45280;-71
2022/07/08 04:25:24;;;;;;;0.80;0.80;;;23.10;44.80;;;;;;5047217;28;46329;-71
2022/07/08 04:27:52;;;;;;;0.60;0.60;;;23.10;44.80;;;;;;5047485;28;45227;-71
2022/07/08 04:30:19;;;;;;;0.73;0.73;;;23.10;44.80;;;;;;5084439;28;45465;-72
2022/07/08 04:32:46;;;;;;;0.80;0.80;;;23.10;44.80;;;;;;5088352;28;45390;-71
2022/07/08 04:35:13;;;;;;;0.50;0.50;;;23.10;44.80;;;;;;5087712;28;45241;-72
2022/07/08 04:37:39;;;;;;;0.52;0.52;;;23.00;44.80;;;;;;5087207;28;45211;-72
2022/07/08 04:40:08;;;;;;;0.82;0.82;;;23.00;44.80;;;;;;5087682;28;45177;-71
2022/07/08 04:42:35;;;;;;;0.80;0.80;;;23.00;44.80;;;;;;5088046;28;45321;-71
2022/07/08 04:45:03;;;;;;;1.02;0.93;;;23.00;44.80;;;;;;5087556;27;45292;-71
2022/07/08 04:47:30;;;;;;;2.15;0.90;;;23.00;44.80;;;;;;5087680;28;45202;-71
2022/07/08 04:49:56;;;;;;;1.10;1.00;;;23.00;44.80;;;;;;5087662;28;45238;-71
2022/07/08 04:52:23;;;;;;;1.15;0.82;;;23.00;44.80;;;;;;5087846;28;45334;-71
2022/07/08 04:54:50;;;;;;;2.17;0.90;;;23.00;44.80;;;;;;5087431;28;46362;-71
2022/07/08 04:57:17;;;;;;;1.48;0.70;;;23.00;44.80;;;;;;5087099;28;45260;-71
2022/07/08 04:59:43;;;;;;;0.88;0.80;;;23.00;44.70;;;;;;5087711;28;45366;-71
2022/07/08 05:02:12;;;;;;;0.95;0.73;;;22.90;44.70;;;;;;5088058;28;45185;-71
2022/07/08 05:04:39;;;;;;;0.75;0.70;;;22.90;44.80;;;;;;5087298;28;45235;-71
2022/07/08 05:07:06;;;;;;;0.98;0.60;;;22.90;44.80;;;;;;5087370;28;45409;-70
2022/07/08 05:09:33;;;;;;;1.30;0.85;;;22.90;44.80;;;;;;5087057;28;45395;-71
2022/07/08 05:11:59;;;;;;;1.42;1.00;;;22.90;44.80;;;;;;5087368;28;45286;-71
2022/07/08 05:14:26;;;;;;;1.45;0.80;;;22.90;44.80;;;;;;5087160;28;47673;-71
2022/07/08 05:16:53;;;;;;;1.80;1.08;;;22.90;44.80;;;;;;5087754;28;45210;-71
2022/07/08 05:19:21;;;;;;;1.10;0.85;;;22.90;44.80;;;;;;5084728;28;45205;-72
2022/07/08 05:21:48;;;;;;;1.15;0.90;;;22.90;44.80;;;;;;5087276;28;45445;-71
2022/07/08 05:24:15;;;;;;;0.88;0.88;;;22.90;44.80;;;;;;5086262;28;45364;-71
2022/07/08 05:26:42;;;;;;;1.38;1.00;;;22.90;44.70;;;;;;5086984;28;45210;-71
2022/07/08 05:29:08;;;;;;;1.02;0.80;;;22.90;44.60;;;;;;5069907;28;45219;-71
2022/07/08 05:31:35;;;;;;;1.95;0.85;;;22.90;44.60;;;;;;5046760;28;45347;-71
2022/07/08 05:34:02;;;;;;;1.33;0.90;;;22.90;44.60;;;;;;5046177;28;46377;-71
2022/07/08 05:36:30;;;;;;;0.80;0.80;;;22.90;45.00;;;;;;5046198;28;45261;-71
2022/07/08 05:38:57;;;;;;;1.20;0.90;;;22.90;44.60;;;;;;5046688;28;45216;-71
2022/07/08 05:41:24;;;;;;;2.35;0.95;;;22.80;44.60;;;;;;5046697;28;45199;-71
2022/07/08 05:43:50;;;;;;;1.20;0.80;;;22.80;44.60;;;;;;5046191;28;45421;-71
2022/07/08 05:46:17;;;;;;;0.90;0.80;;;22.80;44.60;;;;;;5046482;28;45369;-71
2022/07/08 05:48:44;;;;;;;2.13;1.10;;;22.80;44.60;;;;;;5046145;28;45324;-71
2022/07/08 05:51:11;;;;;;;0.90;0.90;;;22.80;44.60;;;;;;5046416;28;45277;-72
2022/07/08 05:53:39;;;;;;;1.10;1.00;;;22.80;44.60;;;;;;5046047;28;46410;-71
2022/07/08 05:56:06;;;;;;;1.42;1.00;;;22.80;45.20;;;;;;5046141;28;45319;-72
2022/07/08 05:58:33;;;;;;;1.17;1.08;;;22.70;44.60;;;;;;5048923;28;45304;-72
2022/07/08 06:01:01;;;;;;;1.65;0.90;;;22.80;44.60;;;;;;5056681;28;45249;-71
2022/07/08 06:03:28;;;;;;;2.03;1.15;;;22.80;44.60;;;;;;5089896;28;46778;-72
2022/07/08 06:05:55;;;;;;;1.67;0.88;;;22.80;44.60;;;;;;5090265;28;45269;-71
2022/07/08 06:08:22;;;;;;;1.35;0.93;;;22.70;44.50;;;;;;5089230;28;45330;-71
2022/07/08 06:10:50;;;;;;;1.17;1.08;;;22.80;44.60;;;;;;5090219;28;45457;-71
2022/07/08 06:13:17;;;;;;;1.20;1.10;;;22.80;44.50;;;;;;5090006;28;46396;-71
2022/07/08 06:15:44;;;;;;;1.20;1.10;;;22.80;44.50;;;;;;5089995;28;45219;-72
2022/07/08 06:18:11;;;;;;;2.83;1.30;;;22.80;44.50;;;;;;5090527;28;45295;-72
2022/07/08 06:20:38;;;;;;;1.48;1.00;;;22.80;44.40;;;;;;5090425;28;45531;-72
2022/07/08 06:23:11;;;;;;;1.65;1.13;;;22.90;44.40;;;;;;5090049;28;46381;-72
2022/07/08 06:25:38;;;;;;;1.45;1.10;;;22.90;44.40;;;;;;5089796;28;45374;-72
2022/07/08 06:28:06;;;;;;;1.30;1.08;;;22.90;44.40;;;;;;5089940;28;45255;-72
2022/07/08 06:30:34;;;;;;;0.90;0.90;;;22.90;44.30;;;;;;5049463;28;45473;-72
2022/07/08 06:33:01;;;;;;;1.00;1.00;;;22.90;44.20;;;;;;5049218;28;46683;-71
2022/07/08 06:35:27;;;;;;;1.40;0.95;;;22.90;44.20;;;;;;5049344;28;45260;-72
2022/07/08 06:37:54;;;;;;;1.17;1.08;;;22.90;44.20;;;;;;5049320;28;45254;-72
2022/07/08 06:40:21;;;;;;;1.75;1.10;;;22.90;44.20;;;;;;5049755;28;45189;-72
2022/07/08 06:42:48;;;;;;;1.30;1.10;;;22.90;44.20;;;;;;5049185;28;45488;-73
2022/07/08 06:45:16;;;;;;;2.05;1.00;;;23.00;44.20;;;;;;5049159;28;45262;-72
2022/07/08 06:47:43;;;;;;;1.75;1.17;;;22.90;44.20;;;;;;5048951;28;45309;-72
2022/07/08 06:50:10;;;;;;;1.20;1.10;;;23.00;44.30;;;;;;5049337;28;45263;-71
2022/07/08 06:52:37;;;;;;;1.10;1.00;;;23.00;44.20;;;;;;5048656;28;46557;-72
2022/07/08 06:55:05;;;;;;;1.40;1.30;;;23.00;44.20;;;;;;5048250;28;45263;-72
2022/07/08 06:57:31;;;;;;;0.90;0.90;;;23.00;44.20;;;;;;5048832;28;45306;-72
2022/07/08 06:59:58;;;;;;;1.63;1.00;;;23.00;44.20;;;;;;5049120;28;45531;-73
2022/07/08 07:02:26;;;;;;;5.88;1.75;;;23.00;44.80;;;;;;5079090;28;47313;-73
2022/07/08 07:04:53;;;;;;;2.30;1.70;;;23.00;44.10;;;;;;5089498;28;45242;-73
2022/07/08 07:07:20;;;;;;;5.20;1.90;;;23.00;44.30;;;;;;5089114;28;45155;-72
2022/07/08 07:09:47;;;;;;;4.00;1.80;;;22.90;44.60;;;;;;5088303;27;45296;-73
2022/07/08 07:12:14;;;;;;;6.07;1.85;;;22.80;44.70;;;;;;5089061;28;48294;-72
2022/07/08 07:14:41;;;;;;;3.30;1.88;;;22.80;45.00;;;;;;5088849;28;45314;-72
2022/07/08 07:17:08;;;;;;;4.22;1.75;;;22.70;45.10;;;;;;5088576;28;45233;-72
2022/07/08 07:19:36;;;;;;;3.80;1.83;;;22.70;45.20;;;;;;5088906;28;45276;-72
2022/07/08 07:22:03;;;;;;;5.97;2.00;;;22.60;45.40;;;;;;5087548;28;47335;-72
2022/07/08 07:24:30;;;;;;;3.38;2.00;;;22.60;45.70;;;;;;5088957;28;45297;-73
2022/07/08 07:26:57;;;;;;;4.25;1.80;;;22.50;45.90;;;;;;5089014;28;45194;-72
2022/07/08 07:29:23;;;;;;;5.78;1.95;;;22.50;46.20;;;;;;5067870;28;45283;-72
2022/07/08 07:31:50;;;;;;;2.92;1.65;;;22.50;46.20;;;;;;5048342;28;47299;-72
2022/07/08 07:34:17;;;;;;;5.40;1.90;;;22.50;46.30;;;;;;5048151;28;45313;-73
2022/07/08 07:36:46;;;;;;;3.65;1.52;;;22.50;46.50;;;;;;5047904;28;45308;-72
2022/07/08 07:39:12;;;;;;;3.38;1.70;;;22.50;46.50;;;;;;5048119;28;45502;-71
2022/07/08 07:41:39;;;;;;;3.75;1.50;;;22.50;46.40;;;;;;5047369;28;46568;-73
2022/07/08 07:44:06;;;;;;;5.22;2.00;;;22.50;46.70;;;;;;5047486;28;45314;-72
2022/07/08 07:46:33;;;;;;;3.85;1.92;;;22.40;46.50;;;;;;5047911;28;45311;-73
2022/07/08 07:49:00;;;;;;;2.53;1.70;;;22.40;46.50;;;;;;5048437;28;45233;-73
2022/07/08 07:51:27;;;;;;;5.88;1.80;;;22.50;46.40;;;;;;5047813;28;45278;-72
2022/07/08 07:53:55;;;;;;;6.63;1.80;;;22.40;46.50;;;;;;5047828;28;45205;-73
2022/07/08 07:56:22;;;;;;;3.38;1.67;;;22.40;46.60;;;;;;5048342;28;45445;-73
2022/07/08 07:58:48;;;;;;;2.28;1.80;;;22.40;46.60;;;;;;5048262;28;45333;-73
2022/07/08 08:01:15;;;;;;;3.28;1.80;;;22.40;46.50;;;;;;5058236;28;46395;-73
2022/07/08 08:03:42;;;;;;;5.47;1.83;;;22.40;46.70;;;;;;5088497;28;45308;-73
2022/07/08 08:06:09;;;;;;;3.58;1.80;;;22.40;46.70;;;;;;5087977;28;45235;-73
2022/07/08 08:08:36;;;;;;;9.77;2.42;;;22.40;47.00;;;;;;5088359;28;45218;-74
2022/07/08 08:11:04;;;;;;;4.63;1.45;;;22.40;47.00;;;;;;5087917;28;45465;-74
2022/07/08 08:13:31;;;;;;;3.35;1.75;;;22.40;46.90;;;;;;5087735;28;45375;-74
2022/07/08 08:15:58;;;;;;;3.10;1.60;;;22.40;46.70;;;;;;5088039;28;45272;-74
2022/07/08 08:18:25;;;;;;;4.25;1.50;;;22.40;46.70;;;;;;5088398;28;45245;-74
2022/07/08 08:20:52;;;;;;;3.55;1.88;;;22.40;46.60;;;;;;5084718;27;45211;-74
2022/07/08 08:23:19;;;;;;;3.60;1.73;;;22.40;46.40;;;;;;5087972;28;45299;-74
2022/07/08 08:25:46;;;;;;;6.78;2.10;;;22.40;46.50;;;;;;5087547;28;45346;-75
2022/07/08 08:28:14;;;;;;;4.65;1.83;;;22.40;46.30;;;;;;5086583;28;45146;-75
2022/07/08 08:30:41;;;;;;;3.53;1.73;;;22.40;46.30;;;;;;5044710;28;45402;-75
2022/07/08 08:33:08;;;;;;;4.72;1.83;;;22.40;46.40;;;;;;5047617;28;45279;-75
2022/07/08 08:35:35;;;;;;;5.10;1.80;;;22.50;46.30;;;;;;5047321;28;45276;-75
2022/07/08 08:38:01;;;;;;;3.53;2.13;;;22.50;46.20;;;;;;5047033;28;45409;-74
2022/07/08 08:40:28;;;;;;;3.42;1.65;;;22.50;46.10;;;;;;5046143;28;45491;-75
2022/07/08 08:42:55;;;;;;;4.35;1.80;;;22.50;46.00;;;;;;5046827;28;45226;-75
2022/07/08 08:45:24;;;;;;;6.22;1.85;;;22.60;45.90;;;;;;5047140;28;45573;-75
2022/07/08 08:47:51;;;;;;;5.05;1.77;;;22.60;45.90;;;;;;5046958;28;45372;-75
2022/07/08 08:53:03;;;;;;;3.70;1.73;;;22.60;46.20;;;;;;5048498;28;47354;-75
2022/07/08 08:55:31;;;;;;;2.97;1.75;;;22.60;46.20;;;;;;5065961;28;45254;-75
2022/07/08 08:57:59;;;;;;;4.82;1.92;;;22.70;46.10;;;;;;5062388;28;45309;-74
2022/07/08 09:00:27;;;;;;;2.13;1.48;;;22.70;45.60;;;;;;5060636;28;48032;-74
2022/07/08 09:02:54;;;;;;;5.25;1.60;;;22.70;45.60;;;;;;5064501;28;45238;-77
2022/07/08 09:05:21;;;;;;;4.05;1.63;;;22.80;45.40;;;;;;5062973;28;45270;-77
2022/07/08 09:07:48;;;;;;;6.15;2.08;;;22.80;45.50;;;;;;5065127;28;45492;-74
2022/07/08 09:10:15;;;;;;;3.33;1.70;;;22.90;45.00;;;;;;5065290;28;46647;-74
2022/07/08 09:13:01;;;;;;;5.07;1.70;;;22.90;44.70;;;;;;5065422;28;45373;-73
2022/07/08 09:15:33;;;;;;;2.67;1.58;;;23.00;44.40;;;;;;5058045;28;45385;-74
2022/07/08 09:18:01;;;;;;;1.83;1.40;;;22.90;43.80;;;;;;5065087;28;45531;-75
2022/07/08 09:20:39;;;;;;;2.75;1.48;;;23.00;43.90;;;;;;5064343;28;45314;-75
2022/07/08 09:23:09;;;;;;;4.43;1.75;;;23.00;43.60;;;;;;5060794;28;45433;-74
2022/07/08 09:25:36;;;;;;;3.05;1.70;;;23.00;43.70;;;;;;5049923;28;45427;-74
2022/07/08 09:28:02;;;;;;;3.25;1.60;;;23.10;43.70;;;;;;5059621;28;45241;-75
2022/07/08 09:30:30;;;;;;;5.30;2.05;;;23.10;43.50;;;;;;5062842;28;45420;-77
2022/07/08 09:32:59;;;;;;;3.75;1.63;;;23.10;43.50;;;;;;5064817;28;45332;-75
2022/07/08 09:35:33;;;;;;;7.47;1.95;;;23.10;43.60;;;;;;5064603;28;45482;-74
2022/07/08 09:38:02;;;;;;;5.22;1.70;;;23.10;43.50;;;;;;5061005;28;45419;-74
2022/07/08 09:40:29;;;;;;;2.53;1.40;;;23.20;43.40;;;;;;5058822;28;45409;-74
2022/07/08 09:42:55;;;;;;;4.18;1.50;;;23.20;43.50;;;;;;5045995;28;45309;-75
2022/07/08 09:45:27;;;;;;;2.17;1.40;;;23.20;43.00;;;;;;5058887;28;45656;-75
2022/07/08 09:48:02;;;;;;;3.38;1.63;;;23.20;42.90;;;;;;5063139;28;45392;-75
2022/07/08 09:50:33;;;;;;;5.25;1.65;;;23.20;43.00;;;;;;5060930;28;45455;-76
2022/07/08 09:53:00;;;;;;;3.28;1.70;;;23.20;43.10;;;;;;5065170;28;45349;-75
2022/07/08 09:55:31;;;;;;;4.72;1.55;;;23.20;43.00;;;;;;5066091;28;45214;-75
2022/07/08 09:57:58;;;;;;;4.13;1.58;;;23.20;43.10;;;;;;5063777;28;45379;-75
2022/07/08 10:00:25;;;;;;;4.05;1.58;;;23.20;42.70;;;;;;5065767;28;45472;-75
2022/07/08 10:02:53;;;;;;;3.75;1.63;;;23.30;43.10;;;;;;5057574;28;45231;-75
2022/07/08 10:05:21;;;;;;;5.88;1.75;;;23.30;42.90;;;;;;5066366;28;45247;-75
2022/07/08 10:07:48;;;;;;;3.83;1.92;;;23.40;43.10;;;;;;5062288;28;45431;-76
2022/07/08 10:10:15;;;;;;;2.50;1.45;;;23.40;43.00;;;;;;5063124;28;46739;-76
2022/07/08 10:12:42;;;;;;;3.80;2.03;;;23.50;43.10;;;;;;5065887;28;45459;-74
2022/07/08 10:15:10;;;;;;;3.13;1.80;;;23.40;42.30;;;;;;5065636;28;45277;-76
2022/07/08 10:17:40;;;;;;;5.18;1.77;;;23.40;42.30;;;;;;5053838;28;45225;-75
2022/07/08 10:20:08;;;;;;;14.70;1.90;;;23.40;42.30;;;;;;5057683;28;46852;-75
2022/07/08 10:22:37;;;;;;;3.28;1.42;;;23.50;42.30;;;;;;5054814;28;45478;-75
2022/07/08 10:25:04;;;;;;;3.55;1.50;;;23.50;42.10;;;;;;5061407;28;45261;-75
2022/07/08 10:27:31;;;;;;;2.05;1.30;;;23.60;41.50;;;;;;5064631;28;45365;-74
2022/07/08 10:30:13;;;;;;;3.83;1.50;;;23.60;41.50;;;;;;5063924;28;45206;-75
2022/07/08 10:32:40;;;;;;;4.18;1.40;;;23.60;41.80;;;;;;5065826;28;45530;-75
2022/07/08 10:35:10;;;;;;;2.05;1.55;;;23.60;41.60;;;;;;5065795;28;45373;-75
2022/07/08 10:37:49;;;;;;;4.38;1.48;;;23.60;41.90;;;;;;5055313;28;45277;-74
2022/07/08 10:40:49;;;;;;;2.95;1.38;;;23.60;41.90;;;;;;5050782;28;45557;-75
2022/07/08 10:43:30;;;;;;;5.10;1.55;;;23.60;41.80;;;;;;5058527;28;45230;-74
2022/07/08 10:46:21;;;;;;;3.80;1.83;;;23.60;41.70;;;;;;5053873;28;45334;-74
2022/07/08 10:48:49;;;;;;;3.58;1.40;;;23.60;41.70;;;;;;5042312;28;45405;-75
2022/07/08 10:51:47;;;;;;;4.40;1.50;;;23.60;41.90;;;;;;5065337;28;45374;-74
2022/07/08 10:54:42;;;;;;;4.43;1.70;;;23.70;41.80;;;;;;5065997;28;45325;-75
2022/07/08 10:57:15;;;;;;;5.03;1.92;;;23.70;42.00;;;;;;5069114;28;45316;-75
2022/07/08 10:59:41;;;;;;;4.43;2.00;;;23.70;41.60;;;;;;5069458;28;45505;-75
2022/07/08 11:02:10;;;;;;;4.65;1.95;;;23.70;41.70;;;;;;5056315;28;45253;-76
2022/07/08 11:04:45;;;;;;;4.03;2.00;;;23.80;41.80;;;;;;5048461;28;45167;-74
2022/07/08 11:07:25;;;;;;;3.50;1.80;;;23.80;41.60;;;;;;5055322;28;45317;-75
2022/07/08 11:09:54;;;;;;;4.15;1.90;;;23.80;41.70;;;;;;5066966;28;45622;-74
2022/07/08 11:12:22;;;;;;;5.32;2.15;;;23.80;41.70;;;;;;5065046;28;45131;-75
2022/07/08 11:14:50;;;;;;;3.38;1.63;;;23.80;41.50;;;;;;5064596;28;45740;-75
2022/07/08 11:17:17;;;;;;;4.68;2.00;;;23.90;41.70;;;;;;5064870;28;45357;-74
2022/07/08 11:19:44;;;;;;;3.03;1.65;;;23.90;42.20;;;;;;5067066;28;45329;-74
2022/07/08 11:22:11;;;;;;;6.90;2.13;;;24.00;41.60;;;;;;5055788;28;46682;-73
2022/07/08 11:24:37;;;;;;;4.97;1.90;;;24.00;41.30;;;;;;5061017;28;45274;-74
2022/07/08 11:27:06;;;;;;;2.03;1.60;;;24.10;41.20;;;;;;5057057;28;45506;-73
2022/07/08 11:29:33;;;;;;;4.47;2.10;;;24.10;41.20;;;;;;5074325;28;45273;-74
2022/07/08 11:32:00;;;;;;;3.45;1.83;;;24.10;41.20;;;;;;5066325;28;45695;-74
2022/07/08 11:34:27;;;;;;;3.60;2.20;;;24.20;41.00;;;;;;5058196;28;45400;-72
2022/07/08 11:36:54;;;;;;;4.10;1.77;;;24.30;41.10;;;;;;5052353;28;45402;-74
2022/07/08 11:39:21;;;;;;;5.32;1.92;;;24.40;40.50;;;;;;5060340;28;45357;-73
2022/07/08 11:41:48;;;;;;;2.70;1.70;;;24.40;40.30;;;;;;5063372;28;45445;-74
2022/07/08 11:44:18;;;;;;;4.72;1.63;;;24.50;40.10;;;;;;5063295;28;45197;-74
2022/07/08 11:46:45;;;;;;;4.18;2.13;;;24.50;40.20;;;;;;5047898;28;45278;-74
2022/07/08 11:49:12;;;;;;;9.52;2.40;;;24.50;40.00;;;;;;5060434;28;45309;-74
2022/07/08 11:51:39;;;;;;;5.03;1.60;;;24.60;39.90;;;;;;5067795;28;45242;-73
2022/07/08 11:54:07;;;;;;;8.07;1.77;;;24.70;39.90;;;;;;5067660;28;45223;-73
2022/07/08 11:56:34;;;;;;;3.33;2.00;;;24.70;39.90;;;;;;5066863;28;45326;-73
2022/07/08 11:59:01;;;;;;;3.28;1.67;;;24.70;39.80;;;;;;5067668;28;45241;-74
2022/07/08 12:01:30;;;;;;;3.63;1.70;;;24.80;39.60;;;;;;5060350;28;45330;-73
2022/07/08 12:03:57;;;;;;;3.15;1.80;;;24.80;39.50;;;;;;5047858;28;45270;-73
2022/07/08 12:06:24;;;;;;;3.47;2.13;;;24.90;39.70;;;;;;5047394;28;45138;-74
2022/07/08 12:08:51;;;;;;;6.13;1.90;;;25.00;39.10;;;;;;5055062;28;45455;-74
2022/07/08 12:11:18;;;;;;;4.13;1.80;;;25.00;39.20;;;;;;5068024;28;45370;-74
2022/07/08 12:13:46;;;;;;;6.75;1.88;;;25.00;39.30;;;;;;5067023;28;46325;-73
2022/07/08 12:16:29;;;;;;;4.68;2.30;;;25.10;39.00;;;;;;5067425;28;45274;-73
2022/07/08 12:18:56;;;;;;;8.75;2.10;;;25.20;38.80;;;;;;5065236;28;45414;-74
2022/07/08 12:21:23;;;;;;;2.00;1.80;;;25.20;39.00;;;;;;5067752;28;45449;-75
2022/07/08 12:23:56;;;;;;;3.03;1.90;;;25.20;38.90;;;;;;5067218;28;45324;-74
2022/07/08 12:26:23;;;;;;;4.78;1.92;;;25.30;38.90;;;;;;5067326;28;45222;-75
2022/07/08 12:28:50;;;;;;;4.25;2.00;;;25.30;38.70;;;;;;5066834;28;45343;-75
2022/07/08 12:31:35;;;;;;;5.93;2.00;;;25.30;38.50;;;;;;5066870;28;48316;-75
2022/07/08 12:34:02;;;;;;;3.53;1.90;;;25.40;38.60;;;;;;5066345;28;45494;-75
2022/07/08 12:36:29;;;;;;;5.40;1.88;;;25.40;38.30;;;;;;5067078;28;45301;-74
2022/07/08 12:38:56;;;;;;;4.97;1.70;;;25.40;38.20;;;;;;5066521;28;45403;-74
2022/07/08 12:41:23;;;;;;;4.32;1.75;;;25.40;38.00;;;;;;5064387;28;45264;-74
2022/07/08 12:43:50;;;;;;;6.53;2.10;;;25.40;38.10;;;;;;5066834;28;45242;-74
2022/07/08 12:46:17;;;;;;;3.85;1.88;;;25.50;38.10;;;;;;5067269;28;45507;-75
2022/07/08 12:48:45;;;;;;;4.43;2.13;;;25.50;38.10;;;;;;5067580;28;45333;-74
2022/07/08 12:51:12;;;;;;;3.08;1.80;;;25.60;38.20;;;;;;5067139;28;46385;-75
2022/07/08 12:53:39;;;;;;;3.45;2.10;;;25.60;38.00;;;;;;5066982;28;45200;-73
2022/07/08 12:56:06;;;;;;;5.65;2.10;;;25.60;37.80;;;;;;5067042;28;45252;-74